createdAt,value
2018-09-21T00:02:20.997Z,16.40
2018-09-21T00:04:49.512Z,16.40
2018-09-21T00:07:18.041Z,16.30
2018-09-21T00:09:46.563Z,16.30
2018-09-21T00:12:15.107Z,16.20
2018-09-21T00:14:43.624Z,16.30
2018-09-21T00:17:12.157Z,16.20
2018-09-21T00:19:40.761Z,16.10
2018-09-21T00:22:09.293Z,16.10
2018-09-21T00:24:37.794Z,16.10
2018-09-21T00:27:07.114Z,16.10
2018-09-21T00:29:35.997Z,16.10
2018-09-21T00:32:04.525Z,16.10
2018-09-21T00:34:33.035Z,16.00
2018-09-21T00:37:01.558Z,16.00
2018-09-21T00:39:30.053Z,16.00
2018-09-21T00:41:58.584Z,15.90
2018-09-21T00:44:27.068Z,15.80
2018-09-21T00:46:55.614Z,16.00
2018-09-21T00:49:24.129Z,16.00
2018-09-21T00:51:52.660Z,16.00
2018-09-21T00:54:21.197Z,15.90
2018-09-21T00:56:49.726Z,15.90
2018-09-21T00:59:18.226Z,15.90
2018-09-21T01:01:46.736Z,16.00
2018-09-21T01:04:15.238Z,16.00
2018-09-21T01:06:43.763Z,16.00
2018-09-21T01:09:12.877Z,16.00
2018-09-21T01:11:41.409Z,16.00
2018-09-21T01:14:09.930Z,15.90
2018-09-21T01:16:38.458Z,15.80
2018-09-21T01:19:07.001Z,15.80
2018-09-21T01:21:35.517Z,15.80
2018-09-21T01:24:04.371Z,15.80
2018-09-21T01:26:32.893Z,15.80
2018-09-21T01:29:01.447Z,15.80
2018-09-21T01:31:30.017Z,15.80
2018-09-21T01:33:58.506Z,15.80
2018-09-21T01:36:27.035Z,15.80
2018-09-21T01:38:55.558Z,15.80
2018-09-21T01:41:24.064Z,15.80
2018-09-21T01:43:57.203Z,15.70
2018-09-21T01:46:25.697Z,15.70
2018-09-21T01:48:54.223Z,15.80
2018-09-21T01:51:22.740Z,15.70
2018-09-21T01:53:51.254Z,15.70
2018-09-21T01:56:19.760Z,15.70
2018-09-21T01:58:48.281Z,15.70
2018-09-21T02:01:16.945Z,15.70
2018-09-21T02:03:45.652Z,15.70
2018-09-21T02:06:14.193Z,15.60
2018-09-21T02:08:42.709Z,15.70
2018-09-21T02:11:11.261Z,15.60
2018-09-21T02:13:39.839Z,15.60
2018-09-21T02:16:08.412Z,15.60
2018-09-21T02:18:36.966Z,15.60
2018-09-21T02:21:05.489Z,15.50
2018-09-21T02:23:34.041Z,15.60
2018-09-21T02:26:02.570Z,15.50
2018-09-21T02:28:31.193Z,15.50
2018-09-21T02:30:59.762Z,15.60
2018-09-21T02:33:28.319Z,15.60
2018-09-21T02:35:56.867Z,15.60
2018-09-21T02:38:25.429Z,15.60
2018-09-21T02:40:53.967Z,15.60
2018-09-21T02:43:22.525Z,15.60
2018-09-21T02:45:51.049Z,15.60
2018-09-21T02:48:19.601Z,15.50
2018-09-21T02:50:48.136Z,15.50
2018-09-21T02:53:16.705Z,15.50
2018-09-21T02:55:45.235Z,15.50
2018-09-21T02:58:13.789Z,15.50
2018-09-21T03:00:42.404Z,15.60
2018-09-21T03:03:10.902Z,15.50
2018-09-21T03:05:39.478Z,15.60
2018-09-21T03:08:08.513Z,15.50
2018-09-21T03:10:37.042Z,15.50
2018-09-21T03:13:05.963Z,15.40
2018-09-21T03:15:34.523Z,15.40
2018-09-21T03:18:03.081Z,15.40
2018-09-21T03:20:31.618Z,15.40
2018-09-21T03:23:00.266Z,15.40
2018-09-21T03:25:28.798Z,15.40
2018-09-21T03:27:57.358Z,15.30
2018-09-21T03:30:25.902Z,15.30
2018-09-21T03:32:54.462Z,15.30
2018-09-21T03:35:23.059Z,15.30
2018-09-21T03:37:51.568Z,15.30
2018-09-21T03:40:20.085Z,15.40
2018-09-21T03:42:48.634Z,15.30
2018-09-21T03:45:17.175Z,15.20
2018-09-21T03:47:45.772Z,15.20
2018-09-21T03:50:14.397Z,15.20
2018-09-21T03:52:42.965Z,15.20
2018-09-21T03:55:11.484Z,15.30
2018-09-21T03:57:40.043Z,15.30
2018-09-21T04:00:09.006Z,15.20
2018-09-21T04:02:37.558Z,15.30
2018-09-21T04:05:06.990Z,15.30
2018-09-21T04:07:35.517Z,15.30
2018-09-21T04:10:04.167Z,15.30
2018-09-21T04:12:32.721Z,15.30
2018-09-21T04:15:01.289Z,15.30
2018-09-21T04:17:29.844Z,15.30
2018-09-21T04:19:58.395Z,15.30
2018-09-21T04:22:26.934Z,15.30
2018-09-21T04:24:55.537Z,15.20
2018-09-21T04:27:24.120Z,15.20
2018-09-21T04:29:52.737Z,15.30
2018-09-21T04:32:21.301Z,15.30
2018-09-21T04:34:50.561Z,15.30
2018-09-21T04:37:19.098Z,15.20
2018-09-21T04:39:48.634Z,15.40
2018-09-21T04:42:17.385Z,15.30
2018-09-21T04:44:46.214Z,15.20
2018-09-21T04:47:14.765Z,15.30
2018-09-21T04:49:43.681Z,15.40
2018-09-21T04:52:12.218Z,15.30
2018-09-21T04:54:40.789Z,15.30
2018-09-21T04:57:09.341Z,15.30
2018-09-21T04:59:37.908Z,15.30
2018-09-21T05:02:06.449Z,15.30
2018-09-21T05:04:35.135Z,15.30
2018-09-21T05:07:03.673Z,15.40
2018-09-21T05:09:32.221Z,15.40
2018-09-21T05:12:00.832Z,15.30
2018-09-21T05:14:29.434Z,15.40
2018-09-21T05:16:57.934Z,15.30
2018-09-21T05:19:26.485Z,15.40
2018-09-21T05:21:55.013Z,15.40
2018-09-21T05:24:23.554Z,15.40
2018-09-21T05:26:52.274Z,15.40
2018-09-21T05:29:20.886Z,15.40
2018-09-21T05:31:49.397Z,15.40
2018-09-21T05:34:18.034Z,15.40
2018-09-21T05:36:47.281Z,15.30
2018-09-21T05:39:15.894Z,15.30
2018-09-21T05:41:44.499Z,15.30
2018-09-21T05:44:13.154Z,15.40
2018-09-21T05:46:42.530Z,15.50
2018-09-21T05:49:11.731Z,15.50
2018-09-21T05:51:40.309Z,15.60
2018-09-21T05:54:08.838Z,15.60
2018-09-21T05:56:37.494Z,15.70
2018-09-21T05:59:06.093Z,15.80
2018-09-21T06:01:34.613Z,16.00
2018-09-21T06:04:03.158Z,16.10
2018-09-21T06:06:31.728Z,16.30
2018-09-21T06:09:00.307Z,16.30
2018-09-21T06:11:31.363Z,16.30
2018-09-21T06:14:04.921Z,16.40
2018-09-21T06:16:37.411Z,16.50
2018-09-21T06:19:06.569Z,16.60
2018-09-21T06:21:39.454Z,16.60
2018-09-21T06:24:08.045Z,16.70
2018-09-21T06:26:36.584Z,16.70
2018-09-21T06:29:06.060Z,16.70
2018-09-21T06:31:34.582Z,16.80
2018-09-21T06:34:07.855Z,16.70
2018-09-21T06:36:36.604Z,16.80
2018-09-21T06:39:08.286Z,16.90
2018-09-21T06:41:36.848Z,17.10
2018-09-21T06:44:05.454Z,17.30
2018-09-21T06:46:34.042Z,17.30
2018-09-21T06:49:02.630Z,17.50
2018-09-21T06:51:31.193Z,17.60
2018-09-21T06:53:59.749Z,17.60
2018-09-21T06:56:28.269Z,17.70
2018-09-21T06:58:58.179Z,17.80
2018-09-21T07:01:27.169Z,18.10
2018-09-21T07:03:55.770Z,18.40
2018-09-21T07:06:24.362Z,18.70
2018-09-21T07:08:52.926Z,19.00
2018-09-21T07:11:21.462Z,19.20
2018-09-21T07:13:49.966Z,19.20
2018-09-21T07:16:18.598Z,19.20
2018-09-21T07:18:47.187Z,19.30
2018-09-21T07:21:15.893Z,19.30
2018-09-21T07:23:44.842Z,19.30
2018-09-21T07:26:13.720Z,19.40
2018-09-21T07:28:42.327Z,19.70
2018-09-21T07:31:10.888Z,19.90
2018-09-21T07:33:39.526Z,20.10
2018-09-21T07:36:08.141Z,20.40
2018-09-21T07:38:36.677Z,20.70
2018-09-21T07:41:05.268Z,21.00
2018-09-21T07:43:33.878Z,21.20
2018-09-21T07:46:02.463Z,21.30
2018-09-21T07:48:31.331Z,21.40
2018-09-21T07:50:59.990Z,21.40
2018-09-21T07:53:29.530Z,21.40
2018-09-21T07:55:58.111Z,21.40
2018-09-21T07:58:26.695Z,21.50
2018-09-21T08:00:55.374Z,21.40
2018-09-21T08:03:23.972Z,21.50
2018-09-21T08:05:52.771Z,21.50
2018-09-21T08:08:21.305Z,21.50
2018-09-21T08:10:49.881Z,21.50
2018-09-21T08:13:19.193Z,21.70
2018-09-21T08:15:47.872Z,21.80
2018-09-21T08:18:16.413Z,21.80
2018-09-21T08:20:44.953Z,21.90
2018-09-21T08:23:13.951Z,21.90
2018-09-21T08:25:42.485Z,22.00
2018-09-21T08:28:11.109Z,22.20
2018-09-21T08:30:39.735Z,22.20
2018-09-21T08:33:08.326Z,22.20
2018-09-21T08:35:36.839Z,22.50
2018-09-21T08:38:05.466Z,22.40
2018-09-21T08:40:34.010Z,22.30
2018-09-21T08:43:02.547Z,22.40
2018-09-21T08:45:31.201Z,22.50
2018-09-21T08:47:59.661Z,22.50
2018-09-21T08:50:28.303Z,22.30
2018-09-21T08:52:56.843Z,22.30
2018-09-21T08:55:25.394Z,22.40
2018-09-21T08:57:53.976Z,22.40
2018-09-21T09:00:22.617Z,22.30
2018-09-21T09:02:51.794Z,22.20
2018-09-21T09:05:23.986Z,22.20
2018-09-21T09:07:54.415Z,22.20
2018-09-21T09:10:27.749Z,22.30
2018-09-21T09:12:56.270Z,22.30
2018-09-21T09:15:25.607Z,22.40
2018-09-21T09:17:54.192Z,22.40
2018-09-21T09:20:22.828Z,22.50
2018-09-21T09:22:51.374Z,22.60
2018-09-21T09:25:19.934Z,22.60
2018-09-21T09:27:48.492Z,22.80
2018-09-21T09:30:17.076Z,23.10
2018-09-21T09:32:45.617Z,23.30
2018-09-21T09:35:14.397Z,23.40
2018-09-21T09:37:43.648Z,23.60
2018-09-21T09:40:12.257Z,23.60
2018-09-21T09:42:40.857Z,23.80
2018-09-21T09:45:09.412Z,23.70
2018-09-21T09:47:37.953Z,23.60
2018-09-21T09:50:07.261Z,23.40
2018-09-21T09:52:35.939Z,23.50
2018-09-21T09:55:04.551Z,23.40
2018-09-21T09:57:33.193Z,23.40
2018-09-21T10:00:01.742Z,23.50
2018-09-21T10:02:30.373Z,23.60
2018-09-21T10:04:59.276Z,23.60
2018-09-21T10:07:27.861Z,23.50
2018-09-21T10:09:56.537Z,23.60
2018-09-21T10:12:25.112Z,23.60
2018-09-21T10:14:54.338Z,23.60
2018-09-21T10:17:23.302Z,23.60
2018-09-21T10:19:51.978Z,23.50
2018-09-21T10:22:20.581Z,23.50
2018-09-21T10:24:49.337Z,23.70
2018-09-21T10:27:18.536Z,23.80
2018-09-21T10:29:47.036Z,24.00
2018-09-21T10:32:20.460Z,24.10
2018-09-21T10:34:49.183Z,24.20
2018-09-21T10:37:17.778Z,24.40
2018-09-21T10:39:46.580Z,24.50
2018-09-21T10:42:18.323Z,24.40
2018-09-21T10:44:47.075Z,24.30
2018-09-21T10:47:15.738Z,24.30
2018-09-21T10:49:47.329Z,24.20
2018-09-21T10:52:16.893Z,24.30
2018-09-21T10:54:45.426Z,24.50
2018-09-21T10:57:13.982Z,24.70
2018-09-21T10:59:42.531Z,24.70
2018-09-21T11:02:11.062Z,24.70
2018-09-21T11:04:39.607Z,24.70
2018-09-21T11:07:08.550Z,24.60
2018-09-21T11:09:37.035Z,24.50
2018-09-21T11:12:05.611Z,24.40
2018-09-21T11:14:36.498Z,24.30
2018-09-21T11:17:05.032Z,24.20
2018-09-21T11:19:33.525Z,24.20
2018-09-21T11:22:02.066Z,24.20
2018-09-21T11:24:30.682Z,24.20
2018-09-21T11:26:59.230Z,24.10
2018-09-21T11:29:27.731Z,24.10
2018-09-21T11:31:56.266Z,24.30
2018-09-21T11:34:24.792Z,24.30
2018-09-21T11:36:53.338Z,24.50
2018-09-21T11:39:21.834Z,24.50
2018-09-21T11:41:50.377Z,24.40
2018-09-21T11:44:18.879Z,24.30
2018-09-21T11:46:47.469Z,24.00
2018-09-21T11:49:15.947Z,23.90
2018-09-21T11:51:44.525Z,23.60
2018-09-21T11:54:13.026Z,23.30
2018-09-21T11:56:41.545Z,23.20
2018-09-21T11:59:10.045Z,23.20
2018-09-21T12:01:38.592Z,22.90
2018-09-21T12:04:07.363Z,22.70
2018-09-21T12:06:35.919Z,22.70
2018-09-21T12:09:05.880Z,22.50
2018-09-21T12:11:34.687Z,22.40
2018-09-21T12:14:03.569Z,22.60
2018-09-21T12:16:32.125Z,22.60
2018-09-21T12:19:00.670Z,22.50
2018-09-21T12:21:29.210Z,22.60
2018-09-21T12:24:00.718Z,22.70
2018-09-21T12:26:29.411Z,22.70
2018-09-21T12:28:58.025Z,22.80
2018-09-21T12:31:26.611Z,22.70
2018-09-21T12:33:55.210Z,22.70
2018-09-21T12:36:24.734Z,22.70
2018-09-21T12:38:53.370Z,22.60
2018-09-21T12:41:22.512Z,22.40
2018-09-21T12:43:51.140Z,22.10
2018-09-21T12:46:26.690Z,21.80
2018-09-21T12:48:59.335Z,21.60
2018-09-21T12:51:27.941Z,21.50
2018-09-21T12:53:56.526Z,21.40
2018-09-21T12:56:25.711Z,21.40
2018-09-21T12:58:54.273Z,21.10
2018-09-21T13:01:23.014Z,20.90
2018-09-21T13:03:52.313Z,20.60
2018-09-21T13:06:22.190Z,20.20
2018-09-21T13:08:50.802Z,19.40
2018-09-21T13:11:19.334Z,18.70
2018-09-21T13:13:47.999Z,18.30
2018-09-21T13:16:16.625Z,18.30
2018-09-21T13:18:45.173Z,18.20
2018-09-21T13:21:13.685Z,18.10
2018-09-21T13:23:42.314Z,18.00
2018-09-21T13:26:11.051Z,18.10
2018-09-21T13:28:39.586Z,18.00
2018-09-21T13:31:08.078Z,17.90
2018-09-21T13:33:36.731Z,17.80
2018-09-21T13:36:05.298Z,17.60
2018-09-21T13:38:33.999Z,17.50
2018-09-21T13:41:02.502Z,17.20
2018-09-21T13:43:31.020Z,17.10
2018-09-21T13:45:59.540Z,17.00
2018-09-21T13:48:28.067Z,16.90
2018-09-21T13:50:56.578Z,16.80
2018-09-21T13:53:25.121Z,16.70
2018-09-21T13:55:53.628Z,16.70
2018-09-21T13:58:22.173Z,16.50
2018-09-21T14:00:50.673Z,16.40
2018-09-21T14:03:19.204Z,16.30
2018-09-21T14:05:47.730Z,16.20
2018-09-21T14:08:16.243Z,16.20
2018-09-21T14:10:44.793Z,16.20
2018-09-21T14:13:13.314Z,16.30
2018-09-21T14:15:42.011Z,16.30
2018-09-21T14:18:10.587Z,16.30
2018-09-21T14:20:39.125Z,16.20
2018-09-21T14:23:07.681Z,16.40
2018-09-21T14:25:36.830Z,16.40
2018-09-21T14:28:05.460Z,16.40
2018-09-21T14:30:33.994Z,16.50
2018-09-21T14:33:02.551Z,16.50
2018-09-21T14:35:31.117Z,16.30
2018-09-21T14:37:59.688Z,16.40
2018-09-21T14:40:28.230Z,16.50
2018-09-21T14:42:57.217Z,16.50
2018-09-21T14:45:25.739Z,16.60
2018-09-21T14:47:54.338Z,16.80
2018-09-21T14:50:22.965Z,16.90
2018-09-21T14:52:51.513Z,16.90
2018-09-21T14:55:20.059Z,16.80
2018-09-21T14:57:48.613Z,16.90
2018-09-21T15:00:17.149Z,16.90
2018-09-21T15:02:45.717Z,16.90
2018-09-21T15:05:14.264Z,16.80
2018-09-21T15:07:42.794Z,16.80
2018-09-21T15:10:11.374Z,16.80
2018-09-21T15:12:39.928Z,16.80
2018-09-21T15:15:08.538Z,17.00
2018-09-21T15:17:37.141Z,17.20
2018-09-21T15:20:05.849Z,17.10
2018-09-21T15:22:34.428Z,17.30
2018-09-21T15:25:03.038Z,17.30
2018-09-21T15:27:33.697Z,17.00
2018-09-21T15:30:02.971Z,17.00
2018-09-21T15:32:31.706Z,17.20
2018-09-21T15:35:01.346Z,17.10
2018-09-21T15:37:29.881Z,17.30
2018-09-21T15:39:58.446Z,17.30
2018-09-21T15:42:26.969Z,17.40
2018-09-21T15:44:55.542Z,17.40
2018-09-21T15:47:24.073Z,17.40
2018-09-21T15:49:52.631Z,17.20
2018-09-21T15:52:21.177Z,17.10
2018-09-21T15:54:49.758Z,17.30
2018-09-21T15:57:18.296Z,17.40
2018-09-21T15:59:46.917Z,17.30
2018-09-21T16:02:15.441Z,17.30
2018-09-21T16:04:43.998Z,17.30
2018-09-21T16:07:12.638Z,17.10
2018-09-21T16:09:41.155Z,17.20
2018-09-21T16:12:09.721Z,17.10
2018-09-21T16:14:38.286Z,17.00
2018-09-21T16:17:06.797Z,17.00
2018-09-21T16:19:35.331Z,17.00
2018-09-21T16:22:03.865Z,17.00
2018-09-21T16:24:32.374Z,16.90
2018-09-21T16:27:00.882Z,16.80
2018-09-21T16:29:29.434Z,16.70
2018-09-21T16:31:57.951Z,16.60
2018-09-21T16:34:26.469Z,16.60
2018-09-21T16:36:57.459Z,16.60
2018-09-21T16:39:26.059Z,16.60
2018-09-21T16:41:54.562Z,16.60
2018-09-21T16:44:23.132Z,16.50
2018-09-21T16:46:51.636Z,16.50
2018-09-21T16:49:20.154Z,16.50
2018-09-21T16:51:48.736Z,16.40
2018-09-21T16:54:17.238Z,16.40
2018-09-21T16:56:45.763Z,16.30
2018-09-21T16:59:14.331Z,16.40
2018-09-21T17:01:42.830Z,16.20
2018-09-21T17:04:11.405Z,16.20
2018-09-21T17:06:39.861Z,16.30
2018-09-21T17:09:10.642Z,16.20
2018-09-21T17:11:39.196Z,16.10
2018-09-21T17:14:07.731Z,16.00
2018-09-21T17:16:36.307Z,16.00
2018-09-21T17:19:04.897Z,16.00
2018-09-21T17:21:33.426Z,16.00
2018-09-21T17:24:02.019Z,15.90
2018-09-21T17:26:30.693Z,16.00
2018-09-21T17:28:59.316Z,16.00
2018-09-21T17:31:27.906Z,15.90
2018-09-21T17:33:56.450Z,15.90
2018-09-21T17:36:25.421Z,15.90
2018-09-21T17:38:54.031Z,16.00
2018-09-21T17:41:22.591Z,16.00
2018-09-21T17:43:51.149Z,16.00
2018-09-21T17:46:19.691Z,15.90
2018-09-21T17:48:48.234Z,15.90
2018-09-21T17:51:16.831Z,15.90
2018-09-21T17:53:45.541Z,15.90
2018-09-21T17:56:14.125Z,15.80
2018-09-21T17:58:42.664Z,15.70
2018-09-21T18:01:11.238Z,15.80
2018-09-21T18:03:39.768Z,15.80
2018-09-21T18:06:08.379Z,15.90
2018-09-21T18:08:36.933Z,15.80
2018-09-21T18:11:05.501Z,15.80
2018-09-21T18:13:34.025Z,15.90
2018-09-21T18:16:02.649Z,15.90
2018-09-21T18:18:31.205Z,15.70
2018-09-21T18:20:59.767Z,15.80
2018-09-21T18:23:28.350Z,15.70
2018-09-21T18:25:57.017Z,15.60
2018-09-21T18:28:25.518Z,15.60
2018-09-21T18:30:54.080Z,15.60
2018-09-21T18:33:22.617Z,15.50
2018-09-21T18:35:51.279Z,15.50
2018-09-21T18:38:19.811Z,15.30
2018-09-21T18:40:48.385Z,15.40
2018-09-21T18:43:16.905Z,15.30
2018-09-21T18:45:45.476Z,15.20
2018-09-21T18:48:14.021Z,15.20
2018-09-21T18:50:42.644Z,15.20
2018-09-21T18:53:11.171Z,15.10
2018-09-21T18:55:39.729Z,15.10
2018-09-21T18:58:08.274Z,15.10
2018-09-21T19:00:36.831Z,15.10
2018-09-21T19:03:05.466Z,15.00
2018-09-21T19:05:34.062Z,15.00
2018-09-21T19:08:02.606Z,15.10
2018-09-21T19:10:31.278Z,15.10
2018-09-21T19:12:59.927Z,15.10
2018-09-21T19:15:28.492Z,15.10
2018-09-21T19:17:56.985Z,15.10
2018-09-21T19:20:25.534Z,15.10
2018-09-21T19:22:54.074Z,15.10
2018-09-21T19:25:22.678Z,15.10
2018-09-21T19:27:51.238Z,15.00
2018-09-21T19:30:19.792Z,15.00
2018-09-21T19:32:48.289Z,14.90
2018-09-21T19:35:16.849Z,14.80
2018-09-21T19:37:45.382Z,14.80
2018-09-21T19:40:13.994Z,14.70
2018-09-21T19:42:45.169Z,14.60
2018-09-21T19:45:15.195Z,14.60
2018-09-21T19:47:44.227Z,14.50
2018-09-21T19:50:13.530Z,14.60
2018-09-21T19:52:42.053Z,14.50
2018-09-21T19:55:11.294Z,14.50
2018-09-21T19:57:40.008Z,14.50
2018-09-21T20:00:08.739Z,14.50
2018-09-21T20:02:37.234Z,14.60
2018-09-21T20:05:06.211Z,14.60
2018-09-21T20:07:34.851Z,14.60
2018-09-21T20:10:03.432Z,14.60
2018-09-21T20:12:31.928Z,14.60
2018-09-21T20:15:00.492Z,14.50
2018-09-21T20:17:29.308Z,14.40
2018-09-21T20:19:58.985Z,14.40
2018-09-21T20:22:27.613Z,14.40
2018-09-21T20:24:57.416Z,14.40
2018-09-21T20:27:26.588Z,14.40
2018-09-21T20:30:00.289Z,14.50
2018-09-21T20:32:34.273Z,14.40
2018-09-21T20:35:03.638Z,14.50
2018-09-21T20:37:32.211Z,14.50
2018-09-21T20:40:00.743Z,14.60
2018-09-21T20:42:29.308Z,14.50
2018-09-21T20:44:57.846Z,14.60
2018-09-21T20:47:26.538Z,14.50
2018-09-21T20:49:55.060Z,14.60
2018-09-21T20:52:23.709Z,14.50
2018-09-21T20:54:52.267Z,14.50
2018-09-21T20:57:20.816Z,14.50
2018-09-21T20:59:49.345Z,14.40
2018-09-21T21:02:17.896Z,14.30
2018-09-21T21:04:46.425Z,14.30
2018-09-21T21:07:14.982Z,14.30
2018-09-21T21:09:43.498Z,14.20
2018-09-21T21:12:12.061Z,14.30
2018-09-21T21:14:40.846Z,14.20
2018-09-21T21:17:09.389Z,14.20
2018-09-21T21:19:38.822Z,14.20
2018-09-21T21:22:07.424Z,14.20
2018-09-21T21:24:35.977Z,14.20
2018-09-21T21:27:04.529Z,14.10
2018-09-21T21:29:33.058Z,14.00
2018-09-21T21:32:01.699Z,14.10
2018-09-21T21:34:30.245Z,14.10
2018-09-21T21:36:58.834Z,14.20
2018-09-21T21:39:27.364Z,14.00
2018-09-21T21:41:55.920Z,14.10
2018-09-21T21:44:24.441Z,14.10
2018-09-21T21:46:53.004Z,14.00
2018-09-21T21:49:21.550Z,14.00
2018-09-21T21:51:50.109Z,14.00
2018-09-21T21:54:18.646Z,14.20
2018-09-21T21:56:47.199Z,14.00
2018-09-21T21:59:15.725Z,14.00
2018-09-21T22:01:46.033Z,14.00
2018-09-21T22:04:15.492Z,14.10
2018-09-21T22:06:44.052Z,14.00
2018-09-21T22:09:13.069Z,14.00
2018-09-21T22:11:46.893Z,14.00
2018-09-21T22:14:15.686Z,14.10
2018-09-21T22:16:44.245Z,14.10
2018-09-21T22:19:12.778Z,13.90
2018-09-21T22:21:41.362Z,13.80
2018-09-21T22:24:09.893Z,13.70
2018-09-21T22:26:39.092Z,13.70
2018-09-21T22:29:07.622Z,13.70
2018-09-21T22:31:36.202Z,13.60
2018-09-21T22:34:04.878Z,13.70
2018-09-21T22:36:33.396Z,13.60
2018-09-21T22:39:01.945Z,13.50
2018-09-21T22:41:30.461Z,13.40
2018-09-21T22:43:59.018Z,13.40
2018-09-21T22:46:27.556Z,13.20
2018-09-21T22:48:56.765Z,13.10
2018-09-21T22:51:25.301Z,13.10
2018-09-21T22:53:53.858Z,13.00
2018-09-21T22:56:22.396Z,13.00
2018-09-21T22:58:50.955Z,12.90
2018-09-21T23:01:19.503Z,13.00
2018-09-21T23:03:48.050Z,12.90
2018-09-21T23:06:16.630Z,12.90
2018-09-21T23:08:45.244Z,12.80
2018-09-21T23:11:13.803Z,12.90
2018-09-21T23:13:42.366Z,12.70
2018-09-21T23:16:10.933Z,12.80
2018-09-21T23:18:39.537Z,12.70
2018-09-21T23:21:08.266Z,12.80
2018-09-21T23:23:36.829Z,12.80
2018-09-21T23:26:05.365Z,12.70
2018-09-21T23:28:33.922Z,12.60
2018-09-21T23:31:02.449Z,12.80
2018-09-21T23:33:30.999Z,12.70
2018-09-21T23:35:59.546Z,12.60
2018-09-21T23:38:28.106Z,12.60
2018-09-21T23:40:56.650Z,12.60
2018-09-21T23:43:25.204Z,12.70
2018-09-21T23:45:53.736Z,12.60
2018-09-21T23:48:22.309Z,12.70
2018-09-21T23:50:50.876Z,12.60
2018-09-21T23:53:19.437Z,12.60
2018-09-21T23:55:47.998Z,12.60
2018-09-21T23:58:16.550Z,12.60
